createdAt,value
2023-05-12T00:02:03.340Z,0.80
2023-05-12T00:04:30.721Z,0.70
2023-05-12T00:06:58.150Z,0.90
2023-05-12T00:09:25.363Z,0.60
2023-05-12T00:11:52.622Z,0.60
2023-05-12T00:14:20.338Z,0.80
2023-05-12T00:16:51.854Z,0.82
2023-05-12T00:19:20.387Z,0.90
2023-05-12T00:21:48.207Z,0.60
2023-05-12T00:24:15.596Z,0.80
2023-05-12T00:26:42.884Z,0.80
2023-05-12T00:29:10.091Z,0.60
2023-05-12T00:31:37.371Z,0.75
2023-05-12T00:34:04.656Z,0.50
2023-05-12T00:36:32.106Z,0.85
2023-05-12T00:38:59.530Z,1.20
2023-05-12T00:41:26.943Z,0.73
2023-05-12T00:43:54.325Z,0.80
2023-05-12T00:46:21.977Z,0.80
2023-05-12T00:48:49.556Z,0.60
2023-05-12T00:51:17.192Z,0.82
2023-05-12T00:53:49.801Z,0.88
2023-05-12T00:56:21.919Z,0.70
2023-05-12T00:58:49.192Z,0.75
2023-05-12T01:01:17.870Z,0.70
2023-05-12T01:03:46.816Z,0.70
2023-05-12T01:06:25.115Z,0.70
2023-05-12T01:08:53.680Z,0.70
2023-05-12T01:11:22.074Z,0.73
2023-05-12T01:13:49.306Z,0.98
2023-05-12T01:16:21.013Z,1.00
2023-05-12T01:18:53.431Z,0.70
2023-05-12T01:21:20.953Z,1.13
2023-05-12T01:24:01.484Z,1.10
2023-05-12T01:26:32.391Z,1.35
2023-05-12T01:29:02.974Z,1.45
2023-05-12T01:31:31.039Z,1.80
2023-05-12T01:33:58.782Z,1.70
2023-05-12T01:36:26.183Z,1.80
2023-05-12T01:38:53.540Z,1.60
2023-05-12T01:41:21.449Z,2.17
2023-05-12T01:43:48.698Z,1.45
2023-05-12T01:46:16.382Z,1.67
2023-05-12T01:48:44.306Z,1.45
2023-05-12T01:51:11.534Z,2.03
2023-05-12T01:53:38.954Z,1.83
2023-05-12T01:56:06.469Z,2.38
2023-05-12T01:58:34.971Z,2.13
2023-05-12T02:01:03.290Z,2.00
2023-05-12T02:03:30.558Z,1.67
2023-05-12T02:05:57.939Z,2.35
2023-05-12T02:08:25.698Z,1.92
2023-05-12T02:11:07.623Z,2.75
2023-05-12T02:13:35.530Z,2.28
2023-05-12T02:16:03.098Z,2.60
2023-05-12T02:18:30.686Z,2.17
2023-05-12T02:20:58.157Z,2.08
2023-05-12T02:23:25.388Z,2.60
2023-05-12T02:25:52.671Z,3.45
2023-05-12T02:28:19.932Z,2.83
2023-05-12T02:30:48.927Z,2.80
2023-05-12T02:33:20.906Z,2.60
2023-05-12T02:35:48.632Z,3.40
2023-05-12T02:38:15.986Z,3.33
2023-05-12T02:40:43.319Z,2.50
2023-05-12T02:43:11.231Z,3.50
2023-05-12T02:45:38.998Z,3.78
2023-05-12T02:48:06.638Z,7.18
2023-05-12T02:50:33.967Z,7.45
2023-05-12T02:53:01.335Z,6.68
2023-05-12T02:55:30.306Z,8.38
2023-05-12T02:57:57.741Z,8.82
2023-05-12T03:00:25.107Z,9.90
2023-05-12T03:02:52.574Z,6.78
2023-05-12T03:05:20.042Z,8.40
2023-05-12T03:07:51.696Z,7.10
2023-05-12T03:10:19.282Z,6.68
2023-05-12T03:12:47.195Z,6.50
2023-05-12T03:15:14.364Z,7.03
2023-05-12T03:17:41.832Z,8.18
2023-05-12T03:20:09.484Z,6.22
2023-05-12T03:22:37.730Z,5.50
2023-05-12T03:25:05.896Z,6.07
2023-05-12T03:27:33.200Z,6.85
2023-05-12T03:30:05.201Z,5.82
2023-05-12T03:32:35.764Z,7.25
2023-05-12T03:35:03.243Z,7.53
2023-05-12T03:37:30.503Z,6.70
2023-05-12T03:39:58.453Z,6.90
2023-05-12T03:42:25.780Z,6.20
2023-05-12T03:44:53.150Z,7.07
2023-05-12T03:47:20.750Z,7.55
2023-05-12T03:49:48.141Z,7.85
2023-05-12T03:52:15.545Z,8.77
2023-05-12T03:54:44.720Z,12.05
2023-05-12T03:57:12.923Z,10.02
2023-05-12T03:59:40.063Z,15.20
2023-05-12T04:02:11.791Z,11.23
2023-05-12T04:04:40.081Z,9.57
2023-05-12T04:07:07.632Z,10.10
2023-05-12T04:09:34.927Z,9.55
2023-05-12T04:12:02.261Z,9.13
2023-05-12T04:14:41.724Z,10.95
2023-05-12T04:17:11.098Z,10.10
2023-05-12T04:19:38.286Z,9.02
2023-05-12T04:22:05.700Z,8.30
2023-05-12T04:24:32.917Z,9.93
2023-05-12T04:27:00.600Z,8.52
2023-05-12T04:29:27.845Z,9.68
2023-05-12T04:31:55.937Z,11.55
2023-05-12T04:34:23.359Z,10.50
2023-05-12T04:36:50.580Z,9.80
2023-05-12T04:39:17.953Z,9.48
2023-05-12T04:41:45.163Z,9.50
2023-05-12T04:44:12.872Z,10.05
2023-05-12T04:46:41.550Z,9.43
2023-05-12T04:49:09.023Z,8.65
2023-05-12T04:51:42.254Z,9.95
2023-05-12T04:54:10.548Z,10.52
2023-05-12T04:56:38.563Z,8.90
2023-05-12T04:59:07.153Z,9.00
2023-05-12T05:01:34.596Z,7.65
2023-05-12T05:04:01.957Z,7.05
2023-05-12T05:06:29.351Z,8.27
2023-05-12T05:08:56.640Z,7.43
2023-05-12T05:11:23.941Z,7.20
2023-05-12T05:13:51.694Z,9.35
2023-05-12T05:16:19.090Z,9.02
2023-05-12T05:18:47.360Z,8.68
2023-05-12T05:21:14.840Z,7.30
2023-05-12T05:23:42.666Z,9.32
2023-05-12T05:26:09.964Z,7.38
2023-05-12T05:28:40.082Z,7.15
2023-05-12T05:31:08.380Z,6.40
2023-05-12T05:33:35.834Z,6.45
2023-05-12T05:36:04.351Z,6.18
2023-05-12T05:38:32.758Z,7.75
2023-05-12T05:40:59.938Z,6.57
2023-05-12T05:43:28.285Z,6.57
2023-05-12T05:45:57.192Z,9.02
2023-05-12T05:48:25.297Z,6.28
2023-05-12T05:50:53.438Z,6.15
2023-05-12T05:53:22.951Z,6.82
2023-05-12T05:55:50.686Z,7.55
2023-05-12T05:58:17.921Z,6.40
2023-05-12T06:00:46.552Z,6.18
2023-05-12T06:03:13.904Z,6.07
2023-05-12T06:05:43.296Z,5.95
2023-05-12T06:08:13.543Z,5.05
2023-05-12T06:10:41.244Z,5.78
2023-05-12T06:13:08.552Z,5.35
2023-05-12T06:15:36.178Z,5.40
2023-05-12T06:18:03.490Z,5.85
2023-05-12T06:20:32.068Z,6.20
2023-05-12T06:22:59.328Z,5.57
2023-05-12T06:25:28.106Z,5.55
2023-05-12T06:27:55.608Z,5.55
2023-05-12T06:30:22.917Z,7.07
2023-05-12T06:32:50.255Z,4.78
2023-05-12T06:35:17.941Z,5.30
2023-05-12T06:37:49.861Z,4.90
2023-05-12T06:40:17.398Z,4.25
2023-05-12T06:42:45.047Z,3.47
2023-05-12T06:45:16.504Z,2.85
2023-05-12T06:47:43.787Z,4.63
2023-05-12T06:50:11.281Z,5.75
2023-05-12T06:52:38.555Z,5.00
2023-05-12T06:55:07.181Z,4.25
2023-05-12T06:57:34.634Z,4.20
2023-05-12T07:00:03.355Z,2.70
2023-05-12T07:02:31.159Z,2.88
2023-05-12T07:04:58.611Z,4.18
2023-05-12T07:07:25.837Z,3.50
2023-05-12T07:09:53.061Z,3.58
2023-05-12T07:12:20.437Z,2.85
2023-05-12T07:14:47.748Z,3.63
2023-05-12T07:17:14.954Z,3.63
2023-05-12T07:19:43.653Z,5.03
2023-05-12T07:22:10.912Z,3.75
2023-05-12T07:24:38.753Z,4.85
2023-05-12T07:27:06.350Z,3.15
2023-05-12T07:29:33.856Z,2.20
2023-05-12T07:32:01.111Z,1.42
2023-05-12T07:34:28.502Z,1.60
2023-05-12T07:36:55.663Z,0.88
2023-05-12T07:39:23.975Z,1.10
2023-05-12T07:41:53.594Z,0.90
2023-05-12T07:44:21.085Z,1.20
2023-05-12T07:46:48.411Z,1.33
2023-05-12T07:49:15.673Z,1.25
2023-05-12T07:51:42.824Z,1.15
2023-05-12T07:54:10.069Z,0.82
2023-05-12T07:56:37.343Z,0.70
2023-05-12T07:59:04.498Z,0.93
2023-05-12T08:01:31.719Z,0.68
2023-05-12T08:03:59.306Z,1.10
2023-05-12T08:06:26.561Z,0.82
2023-05-12T08:08:53.820Z,0.88
2023-05-12T08:11:21.169Z,0.63
2023-05-12T08:13:48.392Z,1.10
2023-05-12T08:16:15.653Z,0.90
2023-05-12T08:18:42.871Z,0.90
2023-05-12T08:21:10.496Z,0.85
2023-05-12T08:23:37.919Z,0.60
2023-05-12T08:26:05.293Z,0.90
2023-05-12T08:28:32.576Z,0.85
2023-05-12T08:31:00.980Z,0.60
2023-05-12T08:33:29.970Z,0.60
2023-05-12T08:35:57.264Z,0.80
2023-05-12T08:38:24.638Z,0.82
2023-05-12T08:41:08.803Z,0.77
2023-05-12T08:43:44.522Z,0.77
2023-05-12T08:46:15.769Z,0.80
2023-05-12T08:48:50.285Z,1.02
2023-05-12T08:53:49.278Z,0.60
2023-05-12T08:58:50.200Z,1.20
2023-05-12T09:01:18.438Z,0.63
2023-05-12T09:03:46.764Z,0.80
2023-05-12T09:06:14.663Z,0.63
2023-05-12T09:08:42.112Z,0.60
2023-05-12T09:11:12.364Z,0.50
2023-05-12T09:13:54.962Z,0.50
2023-05-12T09:16:27.683Z,0.80
2023-05-12T09:18:57.458Z,0.30
2023-05-12T09:21:26.466Z,0.50
2023-05-12T09:24:09.220Z,0.50
2023-05-12T09:26:48.678Z,0.60
2023-05-12T09:29:27.932Z,0.95
2023-05-12T09:32:03.426Z,0.50
2023-05-12T09:34:38.568Z,0.40
2023-05-12T09:37:07.267Z,0.85
2023-05-12T09:39:34.999Z,0.63
2023-05-12T09:42:02.490Z,0.60
2023-05-12T09:44:32.079Z,0.57
2023-05-12T09:47:10.280Z,1.02
2023-05-12T09:49:38.395Z,0.50
2023-05-12T09:52:06.074Z,0.40
2023-05-12T09:54:34.490Z,0.43
2023-05-12T09:57:05.175Z,0.35
2023-05-12T09:59:35.032Z,0.50
2023-05-12T10:02:06.005Z,0.38
2023-05-12T10:04:45.700Z,0.93
2023-05-12T10:07:14.401Z,0.90
2023-05-12T10:09:44.355Z,0.75
2023-05-12T10:12:11.881Z,1.00
2023-05-12T10:14:39.115Z,0.90
2023-05-12T10:17:09.377Z,0.80
2023-05-12T10:19:36.956Z,0.50
2023-05-12T10:22:05.883Z,0.60
2023-05-12T10:24:33.723Z,1.00
2023-05-12T10:27:03.302Z,0.57
2023-05-12T10:29:33.074Z,0.60
2023-05-12T10:32:03.834Z,0.60
2023-05-12T10:34:34.642Z,0.55
2023-05-12T10:37:08.431Z,0.95
2023-05-12T10:39:35.889Z,0.60
2023-05-12T10:42:10.165Z,0.40
2023-05-12T10:44:50.114Z,0.70
2023-05-12T10:47:17.481Z,0.80
2023-05-12T10:49:45.048Z,0.73
2023-05-12T10:52:13.713Z,0.70
2023-05-12T10:54:44.800Z,0.50
2023-05-12T10:57:22.292Z,0.77
2023-05-12T10:59:52.699Z,0.80
2023-05-12T11:02:27.690Z,0.60
2023-05-12T11:05:00.824Z,0.70
2023-05-12T11:07:33.356Z,0.55
2023-05-12T11:10:02.851Z,0.50
2023-05-12T11:12:33.774Z,1.25
2023-05-12T11:15:02.606Z,0.70
2023-05-12T11:17:30.941Z,0.60
2023-05-12T11:19:58.616Z,0.50
2023-05-12T11:22:26.027Z,0.57
2023-05-12T11:24:53.625Z,0.60
2023-05-12T11:27:23.336Z,0.73
2023-05-12T11:30:01.959Z,0.60
2023-05-12T11:32:32.021Z,0.52
2023-05-12T11:35:13.933Z,0.85
2023-05-12T11:37:42.178Z,0.75
2023-05-12T11:40:19.741Z,0.65
2023-05-12T11:42:51.635Z,0.50
2023-05-12T11:45:29.898Z,0.60
2023-05-12T11:48:12.443Z,0.50
2023-05-12T11:50:41.552Z,0.70
2023-05-12T11:53:14.905Z,0.43
2023-05-12T11:55:54.168Z,0.40
2023-05-12T11:58:24.553Z,0.60
2023-05-12T12:00:51.844Z,3.60
2023-05-12T12:03:19.504Z,0.60
2023-05-12T12:06:01.627Z,0.65
2023-05-12T12:08:29.402Z,0.60
2023-05-12T12:10:56.645Z,0.50
2023-05-12T12:13:27.147Z,0.40
2023-05-12T12:15:54.488Z,0.50
2023-05-12T12:18:22.437Z,0.50
2023-05-12T12:20:49.688Z,0.50
2023-05-12T12:23:16.883Z,0.25
2023-05-12T12:25:44.123Z,0.30
2023-05-12T12:28:11.443Z,0.28
2023-05-12T12:30:38.977Z,0.40
2023-05-12T12:33:06.334Z,0.40
2023-05-12T12:35:33.622Z,0.40
2023-05-12T12:38:00.809Z,0.50
2023-05-12T12:40:28.356Z,0.40
2023-05-12T12:42:56.096Z,0.68
2023-05-12T12:45:23.550Z,0.45
2023-05-12T12:47:54.848Z,0.50
2023-05-12T12:50:24.470Z,0.40
2023-05-12T12:52:53.513Z,0.50
2023-05-12T12:55:21.095Z,0.50
2023-05-12T12:57:48.636Z,0.57
2023-05-12T13:00:16.327Z,0.73
2023-05-12T13:02:43.639Z,1.23
2023-05-12T13:05:11.220Z,1.40
2023-05-12T13:07:38.540Z,0.73
2023-05-12T13:10:06.162Z,1.00
2023-05-12T13:12:33.461Z,0.93
2023-05-12T13:15:00.985Z,0.90
2023-05-12T13:17:28.575Z,0.82
2023-05-12T13:19:55.933Z,0.80
2023-05-12T13:22:23.187Z,1.02
2023-05-12T13:24:50.370Z,0.90
2023-05-12T13:27:18.083Z,1.00
2023-05-12T13:29:47.454Z,1.42
2023-05-12T13:32:16.329Z,1.10
2023-05-12T13:34:43.621Z,1.77
2023-05-12T13:37:10.885Z,1.35
2023-05-12T13:39:38.150Z,1.25
2023-05-12T13:42:05.681Z,0.95
2023-05-12T13:44:32.892Z,1.73
2023-05-12T13:47:00.268Z,2.17
2023-05-12T13:49:27.534Z,1.67
2023-05-12T13:51:55.569Z,1.98
2023-05-12T13:54:24.066Z,2.75
2023-05-12T13:56:51.395Z,2.67
2023-05-12T13:59:18.653Z,1.63
2023-05-12T14:01:45.959Z,2.95
2023-05-12T14:04:13.406Z,3.20
2023-05-12T14:06:40.899Z,3.92
2023-05-12T14:09:08.182Z,4.93
2023-05-12T14:11:35.559Z,4.68
2023-05-12T14:14:06.438Z,3.38
2023-05-12T14:16:34.239Z,2.97
2023-05-12T14:19:01.571Z,4.72
2023-05-12T14:21:29.112Z,4.18
2023-05-12T14:23:56.325Z,3.33
2023-05-12T14:26:25.651Z,3.17
2023-05-12T14:28:53.175Z,3.70
2023-05-12T14:31:20.525Z,4.43
2023-05-12T14:33:47.973Z,3.92
2023-05-12T14:36:15.314Z,4.43
2023-05-12T14:38:42.608Z,6.70
2023-05-12T14:41:09.918Z,5.70
2023-05-12T14:43:37.342Z,7.85
2023-05-12T14:46:04.715Z,7.78
2023-05-12T14:48:32.106Z,7.25
2023-05-12T14:50:59.468Z,5.88
2023-05-12T14:53:26.815Z,5.22
2023-05-12T14:55:54.008Z,5.65
2023-05-12T14:58:22.077Z,6.82
2023-05-12T15:00:51.338Z,5.85
2023-05-12T15:03:20.784Z,5.97
2023-05-12T15:06:04.807Z,5.95
2023-05-12T15:08:34.043Z,5.70
2023-05-12T15:11:01.348Z,5.70
2023-05-12T15:13:28.585Z,6.43
2023-05-12T15:15:56.810Z,6.78
2023-05-12T15:18:24.733Z,5.97
2023-05-12T15:20:52.373Z,6.78
2023-05-12T15:23:19.673Z,5.32
2023-05-12T15:25:46.957Z,5.97
2023-05-12T15:28:14.191Z,5.20
2023-05-12T15:30:41.527Z,5.30
2023-05-12T15:33:08.850Z,5.68
2023-05-12T15:35:36.129Z,5.80
2023-05-12T15:38:03.461Z,5.47
2023-05-12T15:40:31.194Z,5.75
2023-05-12T15:42:58.589Z,5.93
2023-05-12T15:45:25.834Z,5.72
2023-05-12T15:47:53.293Z,4.65
2023-05-12T15:50:23.147Z,4.70
2023-05-12T15:52:50.913Z,5.03
2023-05-12T15:55:18.404Z,4.30
2023-05-12T15:57:45.714Z,4.70
2023-05-12T16:00:13.660Z,3.60
2023-05-12T16:02:41.188Z,4.65
2023-05-12T16:05:09.851Z,6.05
2023-05-12T16:07:37.192Z,5.53
2023-05-12T16:10:05.462Z,4.80
2023-05-12T16:12:32.807Z,5.72
2023-05-12T16:15:00.309Z,5.47
2023-05-12T16:17:29.813Z,5.95
2023-05-12T16:19:57.496Z,5.80
2023-05-12T16:22:24.833Z,6.47
2023-05-12T16:24:53.784Z,7.20
2023-05-12T16:27:20.995Z,5.43
2023-05-12T16:29:49.687Z,5.25
2023-05-12T16:32:17.536Z,5.68
2023-05-12T16:34:45.038Z,5.20
2023-05-12T16:37:12.331Z,6.30
2023-05-12T16:39:39.849Z,5.88
2023-05-12T16:42:07.514Z,5.70
2023-05-12T16:44:34.826Z,5.57
2023-05-12T16:47:02.209Z,4.40
2023-05-12T16:49:29.422Z,5.38
2023-05-12T16:51:56.722Z,4.75
2023-05-12T16:54:24.212Z,5.38
2023-05-12T16:56:51.500Z,5.78
2023-05-12T16:59:18.732Z,6.07
2023-05-12T17:01:46.214Z,6.88
2023-05-12T17:04:15.430Z,4.88
2023-05-12T17:06:43.354Z,6.63
2023-05-12T17:09:10.660Z,6.85
2023-05-12T17:11:38.135Z,6.35
2023-05-12T17:14:05.435Z,6.72
2023-05-12T17:16:32.691Z,7.22
2023-05-12T17:21:30.229Z,5.93
2023-05-12T17:23:57.746Z,6.05
2023-05-12T17:26:27.727Z,6.43
2023-05-12T17:28:55.384Z,6.05
2023-05-12T17:31:22.842Z,5.38
2023-05-12T17:33:50.221Z,5.53
2023-05-12T17:36:18.704Z,5.38
2023-05-12T17:38:46.370Z,8.35
2023-05-12T17:41:13.762Z,4.47
2023-05-12T17:43:41.554Z,7.88
2023-05-12T17:46:09.268Z,6.38
2023-05-12T17:48:38.504Z,5.30
2023-05-12T17:51:06.705Z,7.15
2023-05-12T17:53:35.043Z,5.18
2023-05-12T17:56:02.593Z,7.45
2023-05-12T17:58:29.856Z,6.75
2023-05-12T18:00:57.337Z,4.88
2023-05-12T18:03:24.865Z,6.53
2023-05-12T18:05:53.634Z,7.35
2023-05-12T18:08:21.911Z,8.57
2023-05-12T18:10:49.276Z,7.00
2023-05-12T18:13:16.575Z,9.48
2023-05-12T18:15:43.853Z,7.90
2023-05-12T18:18:11.310Z,6.22
2023-05-12T18:20:38.684Z,7.32
2023-05-12T18:23:06.023Z,7.15
2023-05-12T18:25:33.256Z,7.85
2023-05-12T18:28:00.590Z,7.95
2023-05-12T18:30:27.859Z,6.57
2023-05-12T18:32:55.352Z,7.53
2023-05-12T18:35:23.186Z,7.30
2023-05-12T18:37:50.771Z,7.80
2023-05-12T18:40:18.162Z,7.65
2023-05-12T18:42:45.533Z,8.57
2023-05-12T18:45:12.770Z,7.93
2023-05-12T18:47:40.116Z,9.63
2023-05-12T18:50:08.156Z,8.23
2023-05-12T18:52:35.786Z,8.65
2023-05-12T18:55:03.260Z,9.35
2023-05-12T18:57:30.599Z,7.05
2023-05-12T18:59:57.912Z,8.32
2023-05-12T19:02:25.195Z,9.15
2023-05-12T19:04:52.591Z,6.60
2023-05-12T19:07:19.904Z,7.70
2023-05-12T19:09:47.241Z,8.00
2023-05-12T19:12:14.572Z,7.72
2023-05-12T19:14:43.268Z,6.95
2023-05-12T19:17:10.987Z,8.77
2023-05-12T19:19:38.451Z,6.53
2023-05-12T19:22:05.770Z,6.72
2023-05-12T19:24:33.125Z,9.93
2023-05-12T19:27:00.335Z,8.63
2023-05-12T19:29:27.732Z,9.32
2023-05-12T19:31:55.515Z,5.70
2023-05-12T19:34:23.977Z,5.85
2023-05-12T19:36:53.104Z,6.55
2023-05-12T19:39:20.294Z,7.57
2023-05-12T19:41:47.798Z,7.07
2023-05-12T19:44:15.235Z,8.68
2023-05-12T19:46:43.668Z,9.85
2023-05-12T19:49:11.108Z,7.72
2023-05-12T19:51:38.460Z,6.70
2023-05-12T19:54:06.593Z,7.03
2023-05-12T19:56:34.076Z,7.20
2023-05-12T19:59:04.211Z,7.78
2023-05-12T20:01:31.629Z,8.68
2023-05-12T20:03:58.963Z,8.15
2023-05-12T20:06:26.194Z,6.40
2023-05-12T20:08:53.611Z,6.70
2023-05-12T20:11:21.005Z,7.45
2023-05-12T20:13:48.198Z,8.00
2023-05-12T20:16:15.454Z,7.30
2023-05-12T20:18:42.770Z,6.43
2023-05-12T20:21:10.084Z,7.80
2023-05-12T20:23:37.952Z,7.47
2023-05-12T20:26:05.689Z,7.10
2023-05-12T20:28:32.889Z,7.53
2023-05-12T20:31:00.156Z,7.90
2023-05-12T20:33:27.674Z,8.10
2023-05-12T20:35:55.477Z,7.35
2023-05-12T20:38:24.351Z,5.82
2023-05-12T20:40:52.115Z,8.98
2023-05-12T20:43:19.408Z,7.32
2023-05-12T20:45:46.870Z,8.35
2023-05-12T20:48:14.482Z,6.15
2023-05-12T20:50:42.356Z,8.25
2023-05-12T20:53:09.643Z,7.32
2023-05-12T20:55:37.069Z,7.57
2023-05-12T20:58:04.307Z,7.55
2023-05-12T21:00:31.636Z,7.82
2023-05-12T21:02:59.707Z,8.25
2023-05-12T21:05:27.038Z,6.82
2023-05-12T21:07:54.693Z,7.57
2023-05-12T21:10:22.437Z,7.47
2023-05-12T21:12:49.873Z,6.78
2023-05-12T21:15:17.235Z,7.22
2023-05-12T21:17:44.609Z,8.93
2023-05-12T21:20:12.514Z,9.07
2023-05-12T21:22:40.848Z,6.70
2023-05-12T21:25:08.595Z,7.32
2023-05-12T21:27:40.616Z,6.40
2023-05-12T21:30:10.336Z,7.10
2023-05-12T21:32:37.765Z,8.68
2023-05-12T21:35:06.229Z,7.47
2023-05-12T21:37:34.483Z,8.23
2023-05-12T21:40:01.785Z,7.80
2023-05-12T21:42:29.046Z,8.57
2023-05-12T21:44:56.326Z,6.60
2023-05-12T21:47:23.610Z,8.50
2023-05-12T21:49:55.362Z,6.38
2023-05-12T21:52:23.069Z,8.10
2023-05-12T21:54:50.287Z,8.50
2023-05-12T21:57:17.588Z,7.63
2023-05-12T21:59:45.018Z,7.75
2023-05-12T22:02:12.305Z,7.47
2023-05-12T22:04:39.578Z,7.93
2023-05-12T22:07:07.926Z,8.02
2023-05-12T22:09:35.315Z,7.38
2023-05-12T22:12:02.572Z,7.72
2023-05-12T22:14:30.111Z,10.00
2023-05-12T22:16:57.873Z,7.13
2023-05-12T22:19:25.163Z,5.68
2023-05-12T22:21:53.120Z,9.50
2023-05-12T22:24:20.405Z,8.27
2023-05-12T22:26:47.698Z,6.32
2023-05-12T22:29:14.947Z,8.43
2023-05-12T22:31:42.630Z,6.93
2023-05-12T22:34:10.150Z,6.93
2023-05-12T22:36:37.522Z,7.47
2023-05-12T22:39:04.713Z,6.38
2023-05-12T22:41:31.954Z,6.13
2023-05-12T22:43:59.145Z,9.35
2023-05-12T22:46:26.428Z,6.20
2023-05-12T22:48:53.700Z,7.68
2023-05-12T22:51:20.973Z,6.25
2023-05-12T22:53:48.194Z,6.85
2023-05-12T22:56:15.600Z,5.88
2023-05-12T22:58:42.967Z,6.35
2023-05-12T23:01:10.344Z,7.97
2023-05-12T23:03:37.760Z,7.55
2023-05-12T23:06:05.568Z,7.00
2023-05-12T23:08:32.832Z,7.60
2023-05-12T23:11:00.154Z,5.65
2023-05-12T23:13:27.462Z,5.93
2023-05-12T23:15:54.740Z,8.73
2023-05-12T23:18:22.062Z,7.07
2023-05-12T23:20:49.396Z,7.95
2023-05-12T23:23:16.651Z,6.38
2023-05-12T23:25:44.043Z,6.03
2023-05-12T23:28:11.221Z,7.07
2023-05-12T23:30:38.408Z,5.82
2023-05-12T23:33:05.756Z,5.32
2023-05-12T23:35:33.075Z,7.15
2023-05-12T23:38:00.338Z,5.32
2023-05-12T23:40:27.585Z,6.97
2023-05-12T23:42:54.846Z,6.40
2023-05-12T23:45:22.176Z,6.75
2023-05-12T23:47:50.357Z,7.35
2023-05-12T23:50:17.718Z,5.85
2023-05-12T23:52:45.004Z,6.97
2023-05-12T23:55:12.198Z,5.75
2023-05-12T23:57:39.510Z,5.80
